createdAt,value
2022-10-13T00:00:58.046Z,13.40
2022-10-13T00:01:57.901Z,13.40
2022-10-13T00:02:57.888Z,13.39
2022-10-13T00:03:57.874Z,13.40
2022-10-13T00:04:57.861Z,13.40
2022-10-13T00:05:57.849Z,13.39
2022-10-13T00:06:57.832Z,13.39
2022-10-13T00:07:57.822Z,13.40
2022-10-13T00:08:57.808Z,13.40
2022-10-13T00:09:57.796Z,13.39
2022-10-13T00:10:57.783Z,13.39
2022-10-13T00:11:57.770Z,13.39
2022-10-13T00:12:57.755Z,13.39
2022-10-13T00:13:57.742Z,13.39
2022-10-13T00:14:57.727Z,13.39
2022-10-13T00:15:57.740Z,13.39
2022-10-13T00:16:57.700Z,13.39
2022-10-13T00:17:57.688Z,13.39
2022-10-13T00:18:57.673Z,13.39
2022-10-13T00:19:57.662Z,13.37
2022-10-13T00:20:57.649Z,13.39
2022-10-13T00:21:57.636Z,13.39
2022-10-13T00:22:57.621Z,13.39
2022-10-13T00:23:57.607Z,13.39
2022-10-13T00:24:57.593Z,13.40
2022-10-13T00:25:57.581Z,13.37
2022-10-13T00:26:57.566Z,13.40
2022-10-13T00:27:57.554Z,13.37
2022-10-13T00:28:57.670Z,13.39
2022-10-13T00:29:57.559Z,13.39
2022-10-13T00:30:57.514Z,13.40
2022-10-13T00:31:57.524Z,13.39
2022-10-13T00:32:57.486Z,13.39
2022-10-13T00:33:57.475Z,13.39
2022-10-13T00:34:57.458Z,13.39
2022-10-13T00:35:57.448Z,13.36
2022-10-13T00:36:57.433Z,13.39
2022-10-13T00:37:57.420Z,13.39
2022-10-13T00:38:57.408Z,13.37
2022-10-13T00:39:57.393Z,13.37
2022-10-13T00:40:57.379Z,13.37
2022-10-13T00:41:57.366Z,13.37
2022-10-13T00:42:57.352Z,13.39
2022-10-13T00:43:57.349Z,13.37
2022-10-13T00:44:57.325Z,13.36
2022-10-13T00:45:57.315Z,13.37
2022-10-13T00:46:57.300Z,13.37
2022-10-13T00:47:57.309Z,13.37
2022-10-13T00:48:57.270Z,13.37
2022-10-13T00:49:57.260Z,13.36
2022-10-13T00:50:57.245Z,13.36
2022-10-13T00:51:57.233Z,13.36
2022-10-13T00:52:57.218Z,13.36
2022-10-13T00:53:57.206Z,13.37
2022-10-13T00:54:57.191Z,13.36
2022-10-13T00:55:57.178Z,13.37
2022-10-13T00:56:57.164Z,13.36
2022-10-13T00:58:00.357Z,13.37
2022-10-13T00:58:58.179Z,13.35
2022-10-13T00:59:57.126Z,13.36
2022-10-13T01:00:57.163Z,13.36
2022-10-13T01:01:57.097Z,13.35
2022-10-13T01:02:57.083Z,13.37
2022-10-13T01:03:57.094Z,13.36
2022-10-13T01:04:57.061Z,13.36
2022-10-13T01:05:57.043Z,13.36
2022-10-13T01:06:57.030Z,13.37
2022-10-13T01:07:57.019Z,13.36
2022-10-13T01:08:57.003Z,13.36
2022-10-13T01:09:56.991Z,13.36
2022-10-13T01:10:56.976Z,13.37
2022-10-13T01:11:56.963Z,13.36
2022-10-13T01:12:56.947Z,13.35
2022-10-13T01:13:56.937Z,13.36
2022-10-13T01:14:56.919Z,13.37
2022-10-13T01:15:56.909Z,13.35
2022-10-13T01:16:56.893Z,13.35
2022-10-13T01:17:56.881Z,13.35
2022-10-13T01:18:56.867Z,13.33
2022-10-13T01:19:56.878Z,13.32
2022-10-13T01:20:56.840Z,13.33
2022-10-13T01:21:56.828Z,13.32
2022-10-13T01:22:56.814Z,13.33
2022-10-13T01:23:56.801Z,13.33
2022-10-13T01:24:56.788Z,13.33
2022-10-13T01:25:56.777Z,13.35
2022-10-13T01:26:56.761Z,13.35
2022-10-13T01:27:56.748Z,13.35
2022-10-13T01:28:56.735Z,13.33
2022-10-13T01:29:56.720Z,13.35
2022-10-13T01:30:56.717Z,13.35
2022-10-13T01:31:56.692Z,13.35
2022-10-13T01:32:56.680Z,13.33
2022-10-13T01:33:56.667Z,13.33
2022-10-13T01:34:56.655Z,13.33
2022-10-13T01:35:56.663Z,13.33
2022-10-13T01:36:56.627Z,13.33
2022-10-13T01:37:56.611Z,13.32
2022-10-13T01:38:56.600Z,13.33
2022-10-13T01:39:56.585Z,13.35
2022-10-13T01:40:56.576Z,13.32
2022-10-13T01:41:56.557Z,13.33
2022-10-13T01:42:56.547Z,13.32
2022-10-13T01:43:56.533Z,13.32
2022-10-13T01:44:56.522Z,13.33
2022-10-13T01:45:56.509Z,13.33
2022-10-13T01:46:56.493Z,13.32
2022-10-13T01:47:56.480Z,13.32
2022-10-13T01:48:56.468Z,13.32
2022-10-13T01:49:56.454Z,13.33
2022-10-13T01:50:56.443Z,13.32
2022-10-13T01:51:56.450Z,13.32
2022-10-13T01:52:56.413Z,13.32
2022-10-13T01:53:56.399Z,13.30
2022-10-13T01:54:56.388Z,13.32
2022-10-13T01:55:56.372Z,13.30
2022-10-13T01:56:56.361Z,13.30
2022-10-13T01:57:56.358Z,13.30
2022-10-13T01:58:56.333Z,13.30
2022-10-13T01:59:56.320Z,13.32
2022-10-13T02:00:56.378Z,13.32
2022-10-13T02:01:56.291Z,13.30
2022-10-13T02:02:56.304Z,13.32
2022-10-13T02:03:56.263Z,13.30
2022-10-13T02:04:56.252Z,13.32
2022-10-13T02:05:56.241Z,13.32
2022-10-13T02:06:56.226Z,13.32
2022-10-13T02:07:56.244Z,13.32
2022-10-13T02:08:56.200Z,13.32
2022-10-13T02:09:56.194Z,13.33
2022-10-13T02:10:56.172Z,13.33
2022-10-13T02:11:56.157Z,13.32
2022-10-13T02:12:56.144Z,13.33
2022-10-13T02:13:56.129Z,13.33
2022-10-13T02:14:56.119Z,13.32
2022-10-13T02:15:56.104Z,13.30
2022-10-13T02:16:56.094Z,13.29
2022-10-13T02:17:56.077Z,13.32
2022-10-13T02:18:56.066Z,13.29
2022-10-13T02:19:56.054Z,13.32
2022-10-13T02:20:56.038Z,13.30
2022-10-13T02:21:56.022Z,13.30
2022-10-13T02:22:56.011Z,13.30
2022-10-13T02:23:56.023Z,13.30
2022-10-13T02:24:55.987Z,13.29
2022-10-13T02:25:55.969Z,13.30
2022-10-13T02:26:55.957Z,13.30
2022-10-13T02:27:55.945Z,13.32
2022-10-13T02:28:55.932Z,13.30
2022-10-13T02:29:55.915Z,13.29
2022-10-13T02:30:55.902Z,13.29
2022-10-13T02:31:55.888Z,13.27
2022-10-13T02:32:55.875Z,13.30
2022-10-13T02:33:55.861Z,13.29
2022-10-13T02:34:55.850Z,13.29
2022-10-13T02:35:55.836Z,13.30
2022-10-13T02:36:55.822Z,13.30
2022-10-13T02:37:55.810Z,13.30
2022-10-13T02:38:55.795Z,13.30
2022-10-13T02:39:55.805Z,13.27
2022-10-13T02:40:55.769Z,13.30
2022-10-13T02:41:55.754Z,13.30
2022-10-13T02:42:55.745Z,13.29
2022-10-13T02:43:55.727Z,13.29
2022-10-13T02:44:55.720Z,13.29
2022-10-13T02:45:55.702Z,13.29
2022-10-13T02:46:55.690Z,13.29
2022-10-13T02:47:55.674Z,13.27
2022-10-13T02:48:55.664Z,13.29
2022-10-13T02:49:55.648Z,13.29
2022-10-13T02:50:55.636Z,13.29
2022-10-13T02:51:55.621Z,13.29
2022-10-13T02:52:55.610Z,13.30
2022-10-13T02:53:55.597Z,13.29
2022-10-13T02:54:55.585Z,13.27
2022-10-13T02:55:55.592Z,13.27
2022-10-13T02:56:55.556Z,13.29
2022-10-13T02:57:55.541Z,13.30
2022-10-13T02:58:55.530Z,13.29
2022-10-13T02:59:55.515Z,13.29
2022-10-13T03:00:55.510Z,13.29
2022-10-13T03:01:55.488Z,13.29
2022-10-13T03:02:55.476Z,13.29
2022-10-13T03:03:55.461Z,13.29
2022-10-13T03:04:55.449Z,13.29
2022-10-13T03:05:55.433Z,13.27
2022-10-13T03:06:55.421Z,13.27
2022-10-13T03:07:55.406Z,13.27
2022-10-13T03:08:55.395Z,13.27
2022-10-13T03:09:55.391Z,13.27
2022-10-13T03:10:55.369Z,13.27
2022-10-13T03:11:55.377Z,13.29
2022-10-13T03:12:55.341Z,13.30
2022-10-13T03:13:55.327Z,13.29
2022-10-13T03:14:55.314Z,13.29
2022-10-13T03:15:55.301Z,13.29
2022-10-13T03:16:55.292Z,13.29
2022-10-13T03:17:55.272Z,13.29
2022-10-13T03:18:55.262Z,13.25
2022-10-13T03:19:55.246Z,13.25
2022-10-13T03:20:55.234Z,13.27
2022-10-13T03:21:55.220Z,13.25
2022-10-13T03:22:55.208Z,13.27
2022-10-13T03:23:55.194Z,13.27
2022-10-13T03:24:55.182Z,13.29
2022-10-13T03:25:55.167Z,13.27
2022-10-13T03:26:55.155Z,13.27
2022-10-13T03:27:55.162Z,13.27
2022-10-13T03:28:55.128Z,13.27
2022-10-13T03:29:55.113Z,13.25
2022-10-13T03:30:55.101Z,13.25
2022-10-13T03:31:55.084Z,13.29
2022-10-13T03:32:55.073Z,13.25
2022-10-13T03:33:55.059Z,13.25
2022-10-13T03:34:55.048Z,13.27
2022-10-13T03:35:55.033Z,13.29
2022-10-13T03:36:55.020Z,13.27
2022-10-13T03:37:55.007Z,13.27
2022-10-13T03:38:54.993Z,13.27
2022-10-13T03:39:54.978Z,13.27
2022-10-13T03:40:54.967Z,13.27
2022-10-13T03:41:54.950Z,13.27
2022-10-13T03:42:54.939Z,13.29
2022-10-13T03:43:54.948Z,13.27
2022-10-13T03:44:56.550Z,13.27
2022-10-13T03:45:54.897Z,13.27
2022-10-13T03:46:54.884Z,13.27
2022-10-13T03:47:54.869Z,13.27
2022-10-13T03:48:54.860Z,13.27
2022-10-13T03:49:54.842Z,13.25
2022-10-13T03:50:54.831Z,13.25
2022-10-13T03:51:54.817Z,13.25
2022-10-13T03:52:54.810Z,13.27
2022-10-13T03:53:54.788Z,13.25
2022-10-13T03:54:54.778Z,13.24
2022-10-13T03:55:54.762Z,13.25
2022-10-13T03:56:54.750Z,13.24
2022-10-13T03:57:54.741Z,13.25
2022-10-13T03:58:54.723Z,13.25
2022-10-13T03:59:54.733Z,13.24
2022-10-13T04:00:54.698Z,13.25
2022-10-13T04:01:54.752Z,13.25
2022-10-13T04:02:54.671Z,13.25
2022-10-13T04:03:54.665Z,13.25
2022-10-13T04:04:54.648Z,13.27
2022-10-13T04:05:54.628Z,13.27
2022-10-13T04:06:54.616Z,13.27
2022-10-13T04:07:54.601Z,13.27
2022-10-13T04:08:54.588Z,13.25
2022-10-13T04:09:54.575Z,13.24
2022-10-13T04:10:54.562Z,13.24
2022-10-13T04:11:54.547Z,13.24
2022-10-13T04:12:54.535Z,13.24
2022-10-13T04:13:54.520Z,13.25
2022-10-13T04:14:54.512Z,13.29
2022-10-13T04:15:54.520Z,13.29
2022-10-13T04:16:54.482Z,13.27
2022-10-13T04:17:54.467Z,13.27
2022-10-13T04:18:54.454Z,13.25
2022-10-13T04:19:54.441Z,13.24
2022-10-13T04:20:54.428Z,13.25
2022-10-13T04:21:54.412Z,13.24
2022-10-13T04:22:54.400Z,13.25
2022-10-13T04:23:54.385Z,13.25
2022-10-13T04:24:54.374Z,13.24
2022-10-13T04:25:54.358Z,13.24
2022-10-13T04:26:54.347Z,13.24
2022-10-13T04:27:54.333Z,13.24
2022-10-13T04:28:54.443Z,13.24
2022-10-13T04:29:54.304Z,13.24
2022-10-13T04:30:54.294Z,13.24
2022-10-13T04:31:54.347Z,13.24
2022-10-13T04:32:54.266Z,13.24
2022-10-13T04:33:54.251Z,13.24
2022-10-13T04:34:54.244Z,13.24
2022-10-13T04:35:54.225Z,13.22
2022-10-13T04:36:54.213Z,13.24
2022-10-13T04:37:54.198Z,13.25
2022-10-13T04:38:54.187Z,13.22
2022-10-13T04:39:54.172Z,13.24
2022-10-13T04:40:54.160Z,13.22
2022-10-13T04:41:54.145Z,13.22
2022-10-13T04:42:54.134Z,13.22
2022-10-13T04:43:54.118Z,13.21
2022-10-13T04:44:54.106Z,13.21
2022-10-13T04:45:54.092Z,13.22
2022-10-13T04:46:54.078Z,13.21
2022-10-13T04:47:54.090Z,13.22
2022-10-13T04:48:54.052Z,13.22
2022-10-13T04:49:54.040Z,13.22
2022-10-13T04:50:54.024Z,13.22
2022-10-13T04:51:54.010Z,13.24
2022-10-13T04:52:53.999Z,13.22
2022-10-13T04:53:53.983Z,13.22
2022-10-13T04:54:53.971Z,13.22
2022-10-13T04:55:53.957Z,13.22
2022-10-13T04:56:53.944Z,13.24
2022-10-13T04:57:53.929Z,13.21
2022-10-13T04:58:53.916Z,13.22
2022-10-13T04:59:53.900Z,13.24
2022-10-13T05:00:53.969Z,13.22
2022-10-13T05:01:53.876Z,13.24
2022-10-13T05:02:53.864Z,13.22
2022-10-13T05:03:53.871Z,13.22
2022-10-13T05:04:53.839Z,13.22
2022-10-13T05:05:53.821Z,13.24
2022-10-13T05:07:16.570Z,13.22
2022-10-13T05:07:54.836Z,13.22
2022-10-13T05:08:53.782Z,13.24
2022-10-13T05:09:53.768Z,13.22
2022-10-13T05:10:53.757Z,13.21
2022-10-13T05:11:53.742Z,13.22
2022-10-13T05:12:53.728Z,13.22
2022-10-13T05:13:53.713Z,13.21
2022-10-13T05:14:53.701Z,13.21
2022-10-13T05:15:53.686Z,13.22
2022-10-13T05:16:53.675Z,13.22
2022-10-13T05:17:53.659Z,13.21
2022-10-13T05:18:53.647Z,13.22
2022-10-13T05:19:53.665Z,13.21
2022-10-13T05:20:53.621Z,13.22
2022-10-13T05:21:53.607Z,13.21
2022-10-13T05:22:53.593Z,13.22
2022-10-13T05:23:53.579Z,13.21
2022-10-13T05:24:53.568Z,13.24
2022-10-13T05:25:53.552Z,13.22
2022-10-13T05:26:53.543Z,13.24
2022-10-13T05:27:53.525Z,13.21
2022-10-13T05:28:53.547Z,13.22
2022-10-13T05:29:53.499Z,13.24
2022-10-13T05:30:53.486Z,13.24
2022-10-13T05:31:53.471Z,13.24
2022-10-13T05:32:54.091Z,13.22
2022-10-13T05:33:53.444Z,13.21
2022-10-13T05:34:53.433Z,13.24
2022-10-13T05:35:53.443Z,13.24
2022-10-13T05:36:53.408Z,13.22
2022-10-13T05:37:53.391Z,13.24
2022-10-13T05:38:53.381Z,13.22
2022-10-13T05:39:53.367Z,13.24
2022-10-13T05:40:53.353Z,13.24
2022-10-13T05:41:53.339Z,13.24
2022-10-13T05:42:53.327Z,13.22
2022-10-13T05:43:53.315Z,13.24
2022-10-13T05:44:53.300Z,13.24
2022-10-13T05:45:53.286Z,13.24
2022-10-13T05:46:53.276Z,13.24
2022-10-13T05:47:53.260Z,13.22
2022-10-13T05:48:53.245Z,13.22
2022-10-13T05:49:53.233Z,13.22
2022-10-13T05:50:53.219Z,13.22
2022-10-13T05:51:53.281Z,13.22
2022-10-13T05:52:53.192Z,13.22
2022-10-13T05:53:57.685Z,13.24
2022-10-13T05:54:53.164Z,13.24
2022-10-13T05:55:53.151Z,13.24
2022-10-13T05:56:53.136Z,13.25
2022-10-13T05:57:53.125Z,13.24
2022-10-13T05:58:53.110Z,13.24
2022-10-13T05:59:53.100Z,13.24
2022-10-13T06:00:53.084Z,13.24
2022-10-13T06:01:53.098Z,13.22
2022-10-13T06:02:53.056Z,13.24
2022-10-13T06:03:53.045Z,13.24
2022-10-13T06:04:53.031Z,13.24
2022-10-13T06:05:53.044Z,13.24
2022-10-13T06:06:53.001Z,13.24
2022-10-13T06:07:53.140Z,13.22
2022-10-13T06:08:52.975Z,13.24
2022-10-13T06:09:52.965Z,13.24
2022-10-13T06:10:52.948Z,13.24
2022-10-13T06:11:52.936Z,13.24
2022-10-13T06:12:52.921Z,13.24
2022-10-13T06:13:52.908Z,13.22
2022-10-13T06:14:52.894Z,13.22
2022-10-13T06:15:52.887Z,13.22
2022-10-13T06:16:52.868Z,13.22
2022-10-13T06:17:52.856Z,13.25
2022-10-13T06:18:52.841Z,13.22
2022-10-13T06:19:52.828Z,13.24
2022-10-13T06:20:52.813Z,13.25
2022-10-13T06:21:52.801Z,13.22
2022-10-13T06:22:52.837Z,13.24
2022-10-13T06:23:52.801Z,13.22
2022-10-13T06:24:52.769Z,13.24
2022-10-13T06:25:52.750Z,13.24
2022-10-13T06:26:52.734Z,13.24
2022-10-13T06:27:52.720Z,13.22
2022-10-13T06:28:58.386Z,13.22
2022-10-13T06:29:53.733Z,13.22
2022-10-13T06:30:52.680Z,13.22
2022-10-13T06:31:52.667Z,13.24
2022-10-13T06:32:52.652Z,13.24
2022-10-13T06:33:52.645Z,13.24
2022-10-13T06:34:52.625Z,13.25
2022-10-13T06:35:52.616Z,13.25
2022-10-13T06:36:52.598Z,13.25
2022-10-13T06:37:52.588Z,13.24
2022-10-13T06:38:52.572Z,13.25
2022-10-13T06:39:52.595Z,13.24
2022-10-13T06:40:52.546Z,13.25
2022-10-13T06:41:52.534Z,13.25
2022-10-13T06:42:52.519Z,13.25
2022-10-13T06:43:52.507Z,13.25
2022-10-13T06:44:52.491Z,13.25
2022-10-13T06:45:52.481Z,13.25
2022-10-13T06:46:52.464Z,13.27
2022-10-13T06:47:52.452Z,13.27
2022-10-13T06:48:52.438Z,13.27
2022-10-13T06:49:52.425Z,13.27
2022-10-13T06:50:52.411Z,13.29
2022-10-13T06:51:52.401Z,13.27
2022-10-13T06:52:52.385Z,13.29
2022-10-13T06:53:52.373Z,13.33
2022-10-13T06:54:52.367Z,13.33
2022-10-13T06:55:52.741Z,13.33
2022-10-13T06:56:52.330Z,13.33
2022-10-13T06:57:52.319Z,13.35
2022-10-13T06:58:52.312Z,13.39
2022-10-13T06:59:52.292Z,13.37
2022-10-13T07:00:52.352Z,13.40
2022-10-13T07:01:52.266Z,13.50
2022-10-13T07:02:52.250Z,13.61
2022-10-13T07:03:52.240Z,13.62
2022-10-13T07:04:52.222Z,13.60
2022-10-13T07:05:52.208Z,13.58
2022-10-13T07:06:52.194Z,13.54
2022-10-13T07:07:52.183Z,13.54
2022-10-13T07:08:52.173Z,13.50
2022-10-13T07:09:52.155Z,13.50
2022-10-13T07:10:52.141Z,13.48
2022-10-13T07:11:52.153Z,13.45
2022-10-13T07:12:52.115Z,13.42
2022-10-13T07:13:52.156Z,13.40
2022-10-13T07:14:52.090Z,13.40
2022-10-13T07:15:52.077Z,13.42
2022-10-13T07:16:52.064Z,13.40
2022-10-13T07:17:52.054Z,13.40
2022-10-13T07:18:52.036Z,13.39
2022-10-13T07:19:55.669Z,13.40
2022-10-13T07:20:52.009Z,13.43
2022-10-13T07:21:51.995Z,13.43
2022-10-13T07:22:51.982Z,13.43
2022-10-13T07:23:51.968Z,13.45
2022-10-13T07:24:51.954Z,13.46
2022-10-13T07:25:51.942Z,13.48
2022-10-13T07:26:51.927Z,13.51
2022-10-13T07:27:51.938Z,13.51
2022-10-13T07:28:51.987Z,13.53
2022-10-13T07:29:51.888Z,13.51
2022-10-13T07:30:51.873Z,13.53
2022-10-13T07:31:51.862Z,13.53
2022-10-13T07:32:51.842Z,13.54
2022-10-13T07:33:51.836Z,13.55
2022-10-13T07:34:51.819Z,13.55
2022-10-13T07:35:51.808Z,13.55
2022-10-13T07:36:51.851Z,13.54
2022-10-13T07:37:51.781Z,13.55
2022-10-13T07:38:51.767Z,13.53
2022-10-13T07:39:51.766Z,13.54
2022-10-13T07:40:51.741Z,13.55
2022-10-13T07:41:51.728Z,13.55
2022-10-13T07:42:51.716Z,13.55
2022-10-13T07:43:51.726Z,13.57
2022-10-13T07:44:51.685Z,13.55
2022-10-13T07:45:51.675Z,13.57
2022-10-13T07:46:51.659Z,13.55
2022-10-13T07:47:51.649Z,13.55
2022-10-13T07:48:51.634Z,13.55
2022-10-13T07:49:51.621Z,13.53
2022-10-13T07:50:51.608Z,13.53
2022-10-13T07:51:51.595Z,13.54
2022-10-13T07:52:51.583Z,13.51
2022-10-13T07:53:51.568Z,13.50
2022-10-13T07:54:51.554Z,13.48
2022-10-13T07:55:51.542Z,13.48
2022-10-13T07:56:51.525Z,13.48
2022-10-13T07:57:51.514Z,13.50
2022-10-13T07:58:51.499Z,13.53
2022-10-13T07:59:51.513Z,13.57
2022-10-13T08:00:51.472Z,13.61
2022-10-13T08:01:51.507Z,13.62
2022-10-13T08:02:51.445Z,13.62
2022-10-13T08:03:51.435Z,13.66
2022-10-13T08:04:51.422Z,13.68
2022-10-13T08:05:51.408Z,13.66
2022-10-13T08:06:51.393Z,13.68
2022-10-13T08:07:54.660Z,13.69
2022-10-13T08:08:52.406Z,13.68
2022-10-13T08:09:51.353Z,13.66
2022-10-13T08:10:51.455Z,13.68
2022-10-13T08:11:51.329Z,13.66
2022-10-13T08:12:51.314Z,13.64
2022-10-13T08:13:51.315Z,13.64
2022-10-13T08:14:51.288Z,13.61
2022-10-13T08:15:51.372Z,13.60
2022-10-13T08:16:53.638Z,13.60
2022-10-13T08:17:51.252Z,13.60
2022-10-13T08:18:51.236Z,13.57
2022-10-13T08:19:51.224Z,13.57
2022-10-13T08:20:51.210Z,13.58
2022-10-13T08:21:59.882Z,13.57
2022-10-13T08:22:52.230Z,13.58
2022-10-13T08:23:51.175Z,13.57
2022-10-13T08:24:51.158Z,13.57
2022-10-13T08:25:51.145Z,13.57
2022-10-13T08:26:51.130Z,13.58
2022-10-13T08:27:53.056Z,13.61
2022-10-13T08:29:09.567Z,13.64
2022-10-13T08:29:52.129Z,13.64
2022-10-13T08:30:51.246Z,13.64
2022-10-13T08:31:51.351Z,13.62
2022-10-13T08:32:51.050Z,13.66
2022-10-13T08:33:51.037Z,13.64
2022-10-13T08:34:51.031Z,13.64
2022-10-13T08:35:51.010Z,13.66
2022-10-13T08:36:50.998Z,13.68
2022-10-13T08:37:50.982Z,13.66
2022-10-13T08:38:50.972Z,13.66
2022-10-13T08:39:50.954Z,13.68
2022-10-13T08:40:50.941Z,13.69
2022-10-13T08:41:50.929Z,13.69
2022-10-13T08:42:50.914Z,13.69
2022-10-13T08:44:32.951Z,13.78
2022-10-13T08:45:51.913Z,13.97
2022-10-13T08:46:50.860Z,14.01
2022-10-13T08:47:50.907Z,14.03
2022-10-13T08:48:50.832Z,14.07
2022-10-13T08:49:50.821Z,14.09
2022-10-13T08:50:50.806Z,14.10
2022-10-13T08:51:50.798Z,14.10
2022-10-13T08:52:50.779Z,14.09
2022-10-13T08:53:50.970Z,14.10
2022-10-13T08:54:50.751Z,14.10
2022-10-13T08:55:50.740Z,14.12
2022-10-13T08:56:50.819Z,14.13
2022-10-13T08:57:50.712Z,14.13
2022-10-13T08:58:50.699Z,14.12
2022-10-13T08:59:50.685Z,14.12
2022-10-13T09:00:50.674Z,14.14
2022-10-13T09:01:50.745Z,14.14
2022-10-13T09:02:50.652Z,14.16
2022-10-13T09:03:50.773Z,14.16
2022-10-13T09:04:50.618Z,14.14
2022-10-13T09:05:50.605Z,14.12
2022-10-13T09:06:50.591Z,14.12
2022-10-13T09:07:50.616Z,14.12
2022-10-13T09:08:50.566Z,14.10
2022-10-13T09:09:50.553Z,14.09
2022-10-13T09:10:50.538Z,14.10
2022-10-13T09:11:50.726Z,14.09
2022-10-13T09:12:50.513Z,14.12
2022-10-13T09:13:50.504Z,14.10
2022-10-13T09:14:50.488Z,14.10
2022-10-13T09:15:50.485Z,14.10
2022-10-13T09:16:50.459Z,14.09
2022-10-13T09:17:50.447Z,14.10
2022-10-13T09:18:50.431Z,14.10
2022-10-13T09:19:50.520Z,14.07
2022-10-13T09:20:50.405Z,14.07
2022-10-13T09:21:50.392Z,14.09
2022-10-13T09:22:50.380Z,14.09
2022-10-13T09:23:50.369Z,14.09
2022-10-13T09:24:50.350Z,14.09
2022-10-13T09:25:50.340Z,14.10
2022-10-13T09:26:50.323Z,14.12
2022-10-13T09:27:50.313Z,14.13
2022-10-13T09:28:50.395Z,14.14
2022-10-13T09:29:50.287Z,14.13
2022-10-13T09:30:50.272Z,14.13
2022-10-13T09:31:50.261Z,14.13
2022-10-13T09:32:50.246Z,14.14
2022-10-13T09:33:50.239Z,14.16
2022-10-13T09:34:50.220Z,14.14
2022-10-13T09:35:50.275Z,14.16
2022-10-13T09:36:50.195Z,14.19
2022-10-13T09:37:50.181Z,14.20
2022-10-13T09:38:50.166Z,14.20
2022-10-13T09:39:50.157Z,14.17
2022-10-13T09:40:50.145Z,14.19
2022-10-13T09:41:50.129Z,14.20
2022-10-13T09:42:50.116Z,14.21
2022-10-13T09:43:50.107Z,14.24
2022-10-13T09:44:50.092Z,14.27
2022-10-13T09:45:50.078Z,14.29
2022-10-13T09:46:50.070Z,14.31
2022-10-13T09:47:50.055Z,14.28
2022-10-13T09:48:50.036Z,14.28
2022-10-13T09:49:50.027Z,14.27
2022-10-13T09:50:50.010Z,14.25
2022-10-13T09:51:50.130Z,14.24
2022-10-13T09:52:49.984Z,14.25
2022-10-13T09:53:49.972Z,14.24
2022-10-13T09:54:49.967Z,14.24
2022-10-13T09:55:49.948Z,14.27
2022-10-13T09:56:49.935Z,14.24
2022-10-13T09:57:49.923Z,14.21
2022-10-13T09:58:49.932Z,14.20
2022-10-13T09:59:49.984Z,14.19
2022-10-13T10:00:49.887Z,14.24
2022-10-13T10:01:49.868Z,14.21
2022-10-13T10:02:49.852Z,14.21
2022-10-13T10:03:49.923Z,14.25
2022-10-13T10:04:49.826Z,14.24
2022-10-13T10:05:49.812Z,14.21
2022-10-13T10:06:49.798Z,14.20
2022-10-13T10:07:49.809Z,14.21
2022-10-13T10:09:05.159Z,14.21
2022-10-13T10:09:50.799Z,14.20
2022-10-13T10:10:49.746Z,14.20
2022-10-13T10:11:49.730Z,14.21
2022-10-13T10:12:49.719Z,14.21
2022-10-13T10:13:49.698Z,14.21
2022-10-13T10:14:49.688Z,14.20
2022-10-13T10:15:49.678Z,14.19
2022-10-13T10:16:49.664Z,14.19
2022-10-13T10:17:49.650Z,14.20
2022-10-13T10:18:51.067Z,14.20
2022-10-13T10:19:49.625Z,14.21
2022-10-13T10:20:49.612Z,14.21
2022-10-13T10:21:49.609Z,14.24
2022-10-13T10:22:49.585Z,14.21
2022-10-13T10:23:49.592Z,14.21
2022-10-13T10:24:49.558Z,14.21
2022-10-13T10:25:49.545Z,14.20
2022-10-13T10:26:49.544Z,14.19
2022-10-13T10:27:49.518Z,14.20
2022-10-13T10:28:49.537Z,14.24
2022-10-13T10:29:49.491Z,14.21
2022-10-13T10:30:49.479Z,14.21
2022-10-13T10:31:49.465Z,14.20
2022-10-13T10:32:49.453Z,14.20
2022-10-13T10:33:49.438Z,14.20
2022-10-13T10:34:49.426Z,14.20
2022-10-13T10:35:49.409Z,14.20
2022-10-13T10:36:49.396Z,14.20
2022-10-13T10:37:49.386Z,14.19
2022-10-13T10:38:49.373Z,14.20
2022-10-13T10:39:49.396Z,14.19
2022-10-13T10:40:49.348Z,14.19
2022-10-13T10:41:49.334Z,14.21
2022-10-13T10:42:52.114Z,14.20
2022-10-13T10:43:49.305Z,14.21
2022-10-13T10:44:49.294Z,14.21
2022-10-13T10:45:49.279Z,14.24
2022-10-13T10:46:49.282Z,14.24
2022-10-13T10:47:49.254Z,14.21
2022-10-13T10:48:49.241Z,14.20
2022-10-13T10:49:49.224Z,14.19
2022-10-13T10:50:49.216Z,14.19
2022-10-13T10:51:49.201Z,14.24
2022-10-13T10:52:49.188Z,14.21
2022-10-13T10:53:49.174Z,14.21
2022-10-13T10:54:49.527Z,14.21
2022-10-13T10:55:49.171Z,14.24
2022-10-13T10:56:49.136Z,14.25
2022-10-13T10:57:49.122Z,14.24
2022-10-13T10:58:49.110Z,14.24
2022-10-13T10:59:49.098Z,14.21
2022-10-13T11:00:49.083Z,14.24
2022-10-13T11:01:49.124Z,14.21
2022-10-13T11:02:49.056Z,14.24
2022-10-13T11:03:49.044Z,14.24
2022-10-13T11:04:49.034Z,14.24
2022-10-13T11:05:49.017Z,14.24
2022-10-13T11:06:49.005Z,14.24
2022-10-13T11:07:48.988Z,14.27
2022-10-13T11:08:48.980Z,14.25
2022-10-13T11:09:48.962Z,14.20
2022-10-13T11:10:48.951Z,14.17
2022-10-13T11:11:48.960Z,14.16
2022-10-13T11:12:48.927Z,14.13
2022-10-13T11:13:48.911Z,14.13
2022-10-13T11:14:48.900Z,14.12
2022-10-13T11:15:48.887Z,14.09
2022-10-13T11:16:48.874Z,14.10
2022-10-13T11:17:48.859Z,14.12
2022-10-13T11:18:48.847Z,14.13
2022-10-13T11:19:48.834Z,14.17
2022-10-13T11:20:48.821Z,14.21
2022-10-13T11:21:48.807Z,14.25
2022-10-13T11:22:48.796Z,14.28
2022-10-13T11:23:48.779Z,14.28
2022-10-13T11:24:48.767Z,14.29
2022-10-13T11:25:48.751Z,14.28
2022-10-13T11:26:48.742Z,14.27
2022-10-13T11:27:48.770Z,14.27
2022-10-13T11:28:48.781Z,14.24
2022-10-13T11:29:48.702Z,14.24
2022-10-13T11:30:48.691Z,14.24
2022-10-13T11:31:48.674Z,14.20
2022-10-13T11:32:48.665Z,14.20
2022-10-13T11:33:48.650Z,14.19
2022-10-13T11:34:48.645Z,14.17
2022-10-13T11:35:48.623Z,14.16
2022-10-13T11:36:48.615Z,14.16
2022-10-13T11:38:05.759Z,14.17
2022-10-13T11:38:49.624Z,14.17
2022-10-13T11:39:48.571Z,14.19
2022-10-13T11:40:48.557Z,14.24
2022-10-13T11:41:48.542Z,14.29
2022-10-13T11:42:48.532Z,14.38
2022-10-13T11:43:48.546Z,14.39
2022-10-13T11:44:48.502Z,14.43
2022-10-13T11:45:48.488Z,14.44
2022-10-13T11:46:48.478Z,14.44
2022-10-13T11:47:48.464Z,14.44
2022-10-13T11:48:48.467Z,14.43
2022-10-13T11:49:48.440Z,14.44
2022-10-13T11:50:48.431Z,14.44
2022-10-13T11:51:48.413Z,14.44
2022-10-13T11:52:48.402Z,14.43
2022-10-13T11:53:48.386Z,14.44
2022-10-13T11:54:48.377Z,14.46
2022-10-13T11:55:48.358Z,14.46
2022-10-13T11:56:48.915Z,14.50
2022-10-13T11:57:48.335Z,14.53
2022-10-13T11:58:48.322Z,14.53
2022-10-13T11:59:48.354Z,14.50
2022-10-13T12:00:48.299Z,14.47
2022-10-13T12:01:48.284Z,14.43
2022-10-13T12:02:48.347Z,14.39
2022-10-13T12:03:48.257Z,14.35
2022-10-13T12:04:48.244Z,14.34
2022-10-13T12:05:48.231Z,14.34
2022-10-13T12:06:48.219Z,14.32
2022-10-13T12:07:48.204Z,14.29
2022-10-13T12:08:48.196Z,14.28
2022-10-13T12:09:48.180Z,14.28
2022-10-13T12:10:48.168Z,14.27
2022-10-13T12:11:48.153Z,14.27
2022-10-13T12:12:48.141Z,14.27
2022-10-13T12:13:48.129Z,14.28
2022-10-13T12:14:48.117Z,14.28
2022-10-13T12:15:48.218Z,14.29
2022-10-13T12:16:48.122Z,14.29
2022-10-13T12:17:48.073Z,14.31
2022-10-13T12:18:48.063Z,14.32
2022-10-13T12:19:48.046Z,14.35
2022-10-13T12:20:48.035Z,14.35
2022-10-13T12:21:48.024Z,14.35
2022-10-13T12:22:48.008Z,14.35
2022-10-13T12:23:47.994Z,14.35
2022-10-13T12:24:47.984Z,14.35
2022-10-13T12:25:47.967Z,14.34
2022-10-13T12:26:47.956Z,14.32
2022-10-13T12:27:47.942Z,14.34
2022-10-13T12:28:47.993Z,14.34
2022-10-13T12:29:47.918Z,14.34
2022-10-13T12:30:47.905Z,14.34
2022-10-13T12:31:47.913Z,14.37
2022-10-13T12:32:47.879Z,14.39
2022-10-13T12:33:47.865Z,14.42
2022-10-13T12:34:47.853Z,14.42
2022-10-13T12:35:47.837Z,14.43
2022-10-13T12:36:47.891Z,14.43
2022-10-13T12:37:47.810Z,14.46
2022-10-13T12:38:47.801Z,14.47
2022-10-13T12:39:47.786Z,14.49
2022-10-13T12:40:47.773Z,14.49
2022-10-13T12:41:47.755Z,14.50
2022-10-13T12:42:47.744Z,14.49
2022-10-13T12:43:47.731Z,14.50
2022-10-13T12:44:47.718Z,14.50
2022-10-13T12:45:47.705Z,14.47
2022-10-13T12:46:47.695Z,14.47
2022-10-13T12:47:47.753Z,14.47
2022-10-13T12:48:47.669Z,14.49
2022-10-13T12:49:47.655Z,14.49
2022-10-13T12:50:47.644Z,14.49
2022-10-13T12:51:47.632Z,14.50
2022-10-13T12:52:47.671Z,14.50
2022-10-13T12:53:47.603Z,14.50